createdAt,value
2019-02-03T00:01:58.501Z,99483.94
2019-02-03T00:04:27.371Z,99480.50
2019-02-03T00:07:03.529Z,99461.59
2019-02-03T00:09:30.387Z,99471.91
2019-02-03T00:11:59.057Z,99470.59
2019-02-03T00:14:27.694Z,99472.75
2019-02-03T00:16:56.669Z,99483.09
2019-02-03T00:19:25.320Z,99463.75
2019-02-03T00:21:53.976Z,99469.76
2019-02-03T00:24:22.664Z,99461.57
2019-02-03T00:26:51.305Z,99461.61
2019-02-03T00:29:22.780Z,99469.36
2019-02-03T00:31:51.414Z,99465.03
2019-02-03T00:34:22.528Z,99476.23
2019-02-03T00:36:51.148Z,99456.44
2019-02-03T00:39:19.752Z,99451.68
2019-02-03T00:41:48.375Z,99465.89
2019-02-03T00:44:18.636Z,99475.80
2019-02-03T00:46:47.440Z,99475.79
2019-02-03T00:49:16.162Z,99466.78
2019-02-03T00:51:44.848Z,99475.36
2019-02-03T00:54:13.446Z,99474.06
2019-02-03T00:56:42.045Z,99473.63
2019-02-03T00:59:10.714Z,99477.55
2019-02-03T01:01:39.399Z,99473.19
2019-02-03T01:04:08.081Z,99481.40
2019-02-03T01:06:36.925Z,99482.23
2019-02-03T01:09:09.540Z,99474.49
2019-02-03T01:11:38.530Z,99478.82
2019-02-03T01:14:07.198Z,99457.73
2019-02-03T01:16:35.763Z,99483.98
2019-02-03T01:19:04.522Z,99462.03
2019-02-03T01:21:33.151Z,99468.05
2019-02-03T01:24:01.841Z,99466.34
2019-02-03T01:26:30.571Z,99467.63
2019-02-03T01:28:59.249Z,99466.31
2019-02-03T01:31:27.913Z,99454.74
2019-02-03T01:33:56.560Z,99449.56
2019-02-03T01:36:25.241Z,99446.55
2019-02-03T01:38:53.856Z,99443.98
2019-02-03T01:41:22.531Z,99452.14
2019-02-03T01:43:51.165Z,99437.53
2019-02-03T01:46:19.776Z,99441.39
2019-02-03T01:48:48.405Z,99441.84
2019-02-03T01:51:17.018Z,99451.31
2019-02-03T01:53:45.533Z,99449.98
2019-02-03T01:56:14.169Z,99424.16
2019-02-03T01:58:42.770Z,99428.47
2019-02-03T02:01:11.336Z,99440.94
2019-02-03T02:03:39.973Z,99440.09
2019-02-03T02:06:08.620Z,99438.80
2019-02-03T02:08:37.543Z,99436.60
2019-02-03T02:11:06.497Z,99396.61
2019-02-03T02:13:35.185Z,99409.50
2019-02-03T02:16:03.872Z,99406.44
2019-02-03T02:18:32.513Z,99417.20
2019-02-03T02:21:01.167Z,99424.46
2019-02-03T02:23:30.178Z,99424.95
2019-02-03T02:25:58.829Z,99417.23
2019-02-03T02:28:27.435Z,99430.56
2019-02-03T02:30:56.057Z,99435.75
2019-02-03T02:33:24.659Z,99432.72
2019-02-03T02:35:53.287Z,99430.97
2019-02-03T02:38:22.258Z,99432.29
2019-02-03T02:40:50.798Z,99434.45
2019-02-03T02:43:19.403Z,99448.70
2019-02-03T02:45:48.022Z,99446.07
2019-02-03T02:48:16.564Z,99436.59
2019-02-03T02:50:45.352Z,99443.00
2019-02-03T02:53:14.360Z,99439.61
2019-02-03T02:55:45.997Z,99439.17
2019-02-03T02:58:14.624Z,99431.41
2019-02-03T03:00:43.265Z,99432.74
2019-02-03T03:03:11.957Z,99437.48
2019-02-03T03:05:40.638Z,99430.57
2019-02-03T03:08:18.452Z,99440.45
2019-02-03T03:10:43.537Z,99430.17
2019-02-03T03:13:12.089Z,99434.05
2019-02-03T03:15:40.759Z,99434.91
2019-02-03T03:18:09.463Z,99445.19
2019-02-03T03:20:38.430Z,99435.38
2019-02-03T03:23:07.074Z,99441.80
2019-02-03T03:25:35.623Z,99440.11
2019-02-03T03:28:04.401Z,99449.52
2019-02-03T03:30:33.100Z,99444.80
2019-02-03T03:33:01.751Z,99435.77
2019-02-03T03:35:33.737Z,99435.38
2019-02-03T03:38:00.753Z,99434.49
2019-02-03T03:40:29.979Z,99443.53
2019-02-03T03:42:58.747Z,99452.55
2019-02-03T03:45:28.279Z,99433.65
2019-02-03T03:47:56.956Z,99445.27
2019-02-03T03:50:25.520Z,99445.69
2019-02-03T03:52:54.197Z,99443.11
2019-02-03T03:55:22.861Z,99453.41
2019-02-03T03:57:51.505Z,99464.16
2019-02-03T04:00:24.608Z,99443.54
2019-02-03T04:02:53.295Z,99439.69
2019-02-03T04:05:21.944Z,99437.11
2019-02-03T04:07:50.954Z,99449.16
2019-02-03T04:10:24.153Z,99436.22
2019-02-03T04:12:52.803Z,99458.16
2019-02-03T04:15:22.342Z,99462.91
2019-02-03T04:17:51.064Z,99437.51
2019-02-03T04:20:27.839Z,99448.70
2019-02-03T04:22:56.480Z,99468.90
2019-02-03T04:25:25.110Z,99447.41
2019-02-03T04:27:53.856Z,99460.28
2019-02-03T04:30:29.963Z,99453.84
2019-02-03T04:32:58.575Z,99452.14
2019-02-03T04:35:27.262Z,99459.84
2019-02-03T04:37:55.901Z,99456.45
2019-02-03T04:40:24.521Z,99451.28
2019-02-03T04:42:53.147Z,99458.53
2019-02-03T04:45:22.705Z,99466.34
2019-02-03T04:47:51.750Z,99464.20
2019-02-03T04:50:22.546Z,99462.45
2019-02-03T04:52:51.172Z,99456.00
2019-02-03T04:55:21.323Z,99467.20
2019-02-03T04:57:50.466Z,99457.69
2019-02-03T05:00:23.752Z,99472.80
2019-02-03T05:02:52.435Z,99463.72
2019-02-03T05:05:21.165Z,99450.00
2019-02-03T05:07:49.846Z,99464.61
2019-02-03T05:10:19.546Z,99464.61
2019-02-03T05:12:48.290Z,99464.20
2019-02-03T05:15:19.700Z,99472.78
2019-02-03T05:17:48.495Z,99471.08
2019-02-03T05:20:19.123Z,99468.92
2019-02-03T05:22:48.035Z,99485.27
2019-02-03T05:25:16.705Z,99483.56
2019-02-03T05:27:45.282Z,99484.44
2019-02-03T05:30:16.669Z,99468.08
2019-02-03T05:32:45.306Z,99477.11
2019-02-03T05:35:13.998Z,99473.25
2019-02-03T05:37:42.555Z,99491.30
2019-02-03T05:40:13.893Z,99474.51
2019-02-03T05:42:45.194Z,99495.19
2019-02-03T05:45:20.307Z,99494.77
2019-02-03T05:47:50.239Z,99488.71
2019-02-03T05:50:21.216Z,99480.52
2019-02-03T05:52:49.846Z,99493.02
2019-02-03T05:55:19.194Z,99477.02
2019-02-03T05:57:47.829Z,99482.20
2019-02-03T06:00:20.813Z,99494.59
2019-02-03T06:02:49.423Z,99489.89
2019-02-03T06:05:18.056Z,99498.46
2019-02-03T06:07:46.735Z,99495.41
2019-02-03T06:10:17.785Z,99501.83
2019-02-03T06:12:46.526Z,99518.23
2019-02-03T06:15:15.961Z,99503.20
2019-02-03T06:17:44.598Z,99519.03
2019-02-03T06:20:17.959Z,99520.75
2019-02-03T06:22:47.346Z,99514.38
2019-02-03T06:25:16.392Z,99531.95
2019-02-03T06:27:45.080Z,99509.65
2019-02-03T06:30:25.451Z,99535.47
2019-02-03T06:32:54.136Z,99516.97
2019-02-03T06:35:22.772Z,99539.39
2019-02-03T06:37:51.390Z,99543.16
2019-02-03T06:40:20.590Z,99540.58
2019-02-03T06:42:49.218Z,99541.39
2019-02-03T06:45:26.676Z,99543.05
2019-02-03T06:47:55.301Z,99554.19
2019-02-03T06:50:23.925Z,99551.10
2019-02-03T06:52:52.918Z,99554.02
2019-02-03T06:55:21.610Z,99550.66
2019-02-03T06:57:50.223Z,99554.37
2019-02-03T07:00:19.006Z,99566.39
2019-02-03T07:02:47.692Z,99571.59
2019-02-03T07:05:16.393Z,99568.06
2019-02-03T07:07:45.420Z,99562.35
2019-02-03T07:10:14.226Z,99577.61
2019-02-03T07:12:42.835Z,99568.08
2019-02-03T07:15:11.973Z,99567.55
2019-02-03T07:17:40.587Z,99569.99
2019-02-03T07:20:18.164Z,99572.09
2019-02-03T07:22:52.501Z,99586.77
2019-02-03T07:25:23.936Z,99573.06
2019-02-03T07:27:55.499Z,99586.70
2019-02-03T07:30:26.489Z,99573.70
2019-02-03T07:32:55.290Z,99573.56
2019-02-03T07:35:26.656Z,99590.41
2019-02-03T07:37:55.271Z,99590.68
2019-02-03T07:40:23.950Z,99600.48
2019-02-03T07:42:52.577Z,99598.52
2019-02-03T07:45:21.149Z,99611.39
2019-02-03T07:47:49.721Z,99608.68
2019-02-03T07:50:18.340Z,99605.55
2019-02-03T07:52:46.981Z,99599.78
2019-02-03T07:55:19.458Z,99602.67
2019-02-03T07:57:47.996Z,99596.70
2019-02-03T08:00:19.797Z,99603.65
2019-02-03T08:02:48.576Z,99599.02
2019-02-03T08:05:17.365Z,99599.66
2019-02-03T08:07:45.980Z,99595.89
2019-02-03T08:10:26.435Z,99592.12
2019-02-03T08:12:47.746Z,99594.95
2019-02-03T08:15:17.780Z,99600.43
2019-02-03T08:17:46.406Z,99593.44
2019-02-03T08:20:26.485Z,99598.91
2019-02-03T08:22:55.215Z,99598.94
2019-02-03T08:25:23.873Z,99598.20
2019-02-03T08:27:52.542Z,99593.25
2019-02-03T08:30:29.852Z,99597.28
2019-02-03T08:32:58.683Z,99586.70
2019-02-03T08:35:27.371Z,99595.98
2019-02-03T08:37:56.053Z,99601.19
2019-02-03T08:40:36.714Z,99605.09
2019-02-03T08:42:59.626Z,99606.16
2019-02-03T08:45:28.310Z,99602.19
2019-02-03T08:47:56.944Z,99600.63
2019-02-03T08:50:26.026Z,99594.73
2019-02-03T08:52:55.222Z,99596.49
2019-02-03T08:55:23.907Z,99601.19
2019-02-03T08:57:52.544Z,99602.83
2019-02-03T09:00:29.747Z,99603.72
2019-02-03T09:02:58.454Z,99595.67
2019-02-03T09:05:27.606Z,99604.52
2019-02-03T09:07:56.290Z,99597.23
2019-02-03T09:10:26.034Z,99606.06
2019-02-03T09:12:54.728Z,99600.34
2019-02-03T09:15:29.906Z,99607.05
2019-02-03T09:17:58.545Z,99597.77
2019-02-03T09:20:34.409Z,99599.47
2019-02-03T09:23:03.214Z,99587.24
2019-02-03T09:25:31.875Z,99604.58
2019-02-03T09:28:00.561Z,99587.53
2019-02-03T09:30:37.617Z,99592.11
2019-02-03T09:33:07.710Z,99592.34
2019-02-03T09:35:36.338Z,99602.75
2019-02-03T09:38:05.182Z,99601.60
2019-02-03T09:40:34.956Z,99598.50
2019-02-03T09:43:03.593Z,99587.86
2019-02-03T09:45:32.559Z,99591.78
2019-02-03T09:48:01.187Z,99576.45
2019-02-03T09:50:32.855Z,99583.87
2019-02-03T09:53:02.698Z,99568.46
2019-02-03T09:55:31.990Z,99563.66
2019-02-03T09:58:01.339Z,99571.20
2019-02-03T10:00:37.330Z,99573.27
2019-02-03T10:03:11.580Z,99567.41
2019-02-03T10:05:43.150Z,99562.08
2019-02-03T10:08:11.836Z,99561.70
2019-02-03T10:10:42.051Z,99562.73
2019-02-03T10:13:10.734Z,99561.25
2019-02-03T10:15:39.299Z,99558.66
2019-02-03T10:18:09.542Z,99554.94
2019-02-03T10:20:38.176Z,99556.38
2019-02-03T10:23:09.816Z,99552.34
2019-02-03T10:25:38.439Z,99543.55
2019-02-03T10:28:07.237Z,99547.20
2019-02-03T10:30:35.939Z,99558.87
2019-02-03T10:33:05.264Z,99541.23
2019-02-03T10:35:34.897Z,99536.17
2019-02-03T10:38:06.988Z,99537.37
2019-02-03T10:40:41.273Z,99543.18
2019-02-03T10:43:10.556Z,99550.70
2019-02-03T10:45:39.207Z,99544.44
2019-02-03T10:48:07.865Z,99522.25
2019-02-03T10:50:39.079Z,99524.80
2019-02-03T10:53:10.673Z,99525.59
2019-02-03T10:55:39.308Z,99524.89
2019-02-03T10:58:10.932Z,99534.22
2019-02-03T11:00:42.285Z,99529.63
2019-02-03T11:03:13.638Z,99517.14
2019-02-03T11:05:44.765Z,99518.20
2019-02-03T11:08:15.203Z,99514.86
2019-02-03T11:10:44.469Z,99520.22
2019-02-03T11:13:13.190Z,99510.73
2019-02-03T11:15:41.874Z,99509.61
2019-02-03T11:18:10.957Z,99507.88
2019-02-03T11:20:39.664Z,99515.69
2019-02-03T11:23:08.399Z,99506.84
2019-02-03T11:25:37.064Z,99499.94
2019-02-03T11:28:06.111Z,99495.84
2019-02-03T11:30:34.883Z,99501.59
2019-02-03T11:33:06.051Z,99496.70
2019-02-03T11:35:33.902Z,99497.30
2019-02-03T11:38:02.537Z,99489.03
2019-02-03T11:40:33.776Z,99492.47
2019-02-03T11:43:05.753Z,99487.62
2019-02-03T11:45:41.532Z,99482.59
2019-02-03T11:48:15.465Z,99478.78
2019-02-03T11:50:45.411Z,99481.25
2019-02-03T11:53:16.812Z,99489.19
2019-02-03T11:55:45.438Z,99484.61
2019-02-03T11:58:14.179Z,99482.82
2019-02-03T12:00:45.639Z,99487.41
2019-02-03T12:03:14.278Z,99477.91
2019-02-03T12:05:42.953Z,99479.91
2019-02-03T12:08:11.583Z,99483.22
2019-02-03T12:10:40.194Z,99469.70
2019-02-03T12:13:09.027Z,99465.49
2019-02-03T12:15:38.045Z,99480.09
2019-02-03T12:18:07.028Z,99475.00
2019-02-03T12:20:35.656Z,99468.82
2019-02-03T12:23:04.448Z,99472.05
2019-02-03T12:25:41.330Z,99475.52
2019-02-03T12:28:10.494Z,99474.09
2019-02-03T12:30:39.234Z,99465.59
2019-02-03T12:33:08.349Z,99470.30
2019-02-03T12:35:39.942Z,99473.02
2019-02-03T12:38:08.583Z,99472.12
2019-02-03T12:40:44.198Z,99464.61
2019-02-03T12:43:12.836Z,99469.42
2019-02-03T12:45:41.521Z,99465.86
2019-02-03T12:48:10.468Z,99477.33
2019-02-03T12:50:39.145Z,99470.59
2019-02-03T12:53:08.267Z,99470.41
2019-02-03T12:55:39.884Z,99474.55
2019-02-03T12:58:08.567Z,99467.66
2019-02-03T13:00:37.793Z,99473.96
2019-02-03T13:03:08.276Z,99479.22
2019-02-03T13:05:36.963Z,99479.65
2019-02-03T13:08:06.698Z,99480.03
2019-02-03T13:10:37.504Z,99475.92
2019-02-03T13:13:07.887Z,99474.91
2019-02-03T13:15:45.396Z,99470.41
2019-02-03T13:18:14.210Z,99464.65
2019-02-03T13:20:43.233Z,99466.87
2019-02-03T13:23:12.023Z,99454.47
2019-02-03T13:25:43.389Z,99448.05
2019-02-03T13:28:12.062Z,99461.84
2019-02-03T13:30:42.816Z,99462.09
2019-02-03T13:33:11.548Z,99455.14
2019-02-03T13:35:40.242Z,99458.47
2019-02-03T13:38:09.274Z,99463.11
2019-02-03T13:40:40.896Z,99458.11
2019-02-03T13:43:09.583Z,99465.16
2019-02-03T13:45:38.805Z,99457.64
2019-02-03T13:48:07.990Z,99451.67
2019-02-03T13:50:36.639Z,99454.91
2019-02-03T13:53:05.421Z,99445.92
2019-02-03T13:55:34.055Z,99443.86
2019-02-03T13:58:02.741Z,99455.19
2019-02-03T14:00:37.134Z,99437.80
2019-02-03T14:03:08.693Z,99444.28
2019-02-03T14:05:37.319Z,99448.56
2019-02-03T14:08:05.968Z,99457.75
2019-02-03T14:10:35.956Z,99454.58
2019-02-03T14:13:08.965Z,99450.97
2019-02-03T14:15:40.490Z,99444.29
2019-02-03T14:18:09.219Z,99439.70
2019-02-03T14:20:37.906Z,99442.94
2019-02-03T14:23:06.651Z,99451.52
2019-02-03T14:25:38.519Z,99448.78
2019-02-03T14:28:07.267Z,99452.77
2019-02-03T14:30:41.651Z,99436.64
2019-02-03T14:33:10.574Z,99440.03
2019-02-03T14:35:39.308Z,99445.95
2019-02-03T14:38:10.524Z,99454.58
2019-02-03T14:40:39.165Z,99451.20
2019-02-03T14:43:07.854Z,99446.41
2019-02-03T14:45:37.887Z,99437.07
2019-02-03T14:48:09.580Z,99431.58
2019-02-03T14:50:38.494Z,99430.73
2019-02-03T14:53:09.648Z,99441.92
2019-02-03T14:55:41.061Z,99462.09
2019-02-03T14:58:09.846Z,99441.45
2019-02-03T15:00:49.189Z,99431.31
2019-02-03T15:03:19.319Z,99426.92
2019-02-03T15:05:47.985Z,99429.45
2019-02-03T15:08:19.768Z,99442.11
2019-02-03T15:10:48.408Z,99433.80
2019-02-03T15:13:17.113Z,99431.72
2019-02-03T15:15:45.948Z,99435.84
2019-02-03T15:18:14.666Z,99434.02
2019-02-03T15:20:44.224Z,99447.97
2019-02-03T15:23:15.973Z,99456.54
2019-02-03T15:25:50.367Z,99448.59
2019-02-03T15:28:19.161Z,99462.94
2019-02-03T15:30:49.337Z,99469.17
2019-02-03T15:33:17.981Z,99472.11
2019-02-03T15:35:46.662Z,99468.22
2019-02-03T15:38:15.293Z,99472.42
2019-02-03T15:40:47.436Z,99454.86
2019-02-03T15:43:25.082Z,99462.38
2019-02-03T15:45:49.183Z,99453.64
2019-02-03T15:48:20.689Z,99459.03
2019-02-03T15:50:49.223Z,99455.92
2019-02-03T15:53:20.977Z,99464.71
2019-02-03T15:55:52.622Z,99483.17
2019-02-03T15:58:24.600Z,99490.55
2019-02-03T16:00:53.887Z,99487.73
2019-02-03T16:03:25.490Z,99476.11
2019-02-03T16:05:57.735Z,99480.50
2019-02-03T16:08:29.689Z,99481.86
2019-02-03T16:10:58.248Z,99485.67
2019-02-03T16:13:36.799Z,99476.13
2019-02-03T16:15:59.930Z,99471.62
2019-02-03T16:18:28.662Z,99475.20
2019-02-03T16:20:57.399Z,99481.56
2019-02-03T16:23:26.217Z,99481.56
2019-02-03T16:25:54.897Z,99485.11
2019-02-03T16:28:23.454Z,99479.91
2019-02-03T16:30:55.331Z,99487.42
2019-02-03T16:33:26.961Z,99486.72
2019-02-03T16:35:55.615Z,99498.67
2019-02-03T16:38:27.183Z,99483.26
2019-02-03T16:40:55.855Z,99491.11
2019-02-03T16:43:24.496Z,99497.74
2019-02-03T16:45:53.078Z,99519.59
2019-02-03T16:48:24.517Z,99517.84
2019-02-03T16:50:53.253Z,99522.31
2019-02-03T16:53:21.982Z,99537.77
2019-02-03T16:55:53.601Z,99542.87
2019-02-03T16:58:28.442Z,99529.59
2019-02-03T17:00:59.491Z,99523.78
2019-02-03T17:03:28.126Z,99516.73
2019-02-03T17:05:56.807Z,99529.72
2019-02-03T17:08:25.517Z,99520.44
2019-02-03T17:10:54.244Z,99525.45
2019-02-03T17:13:23.316Z,99532.48
2019-02-03T17:15:56.211Z,99521.78
2019-02-03T17:18:27.660Z,99526.47
2019-02-03T17:21:01.855Z,99530.95
2019-02-03T17:23:27.635Z,99530.67
2019-02-03T17:25:59.479Z,99531.33
2019-02-03T17:28:29.649Z,99526.91
2019-02-03T17:30:58.367Z,99538.83
2019-02-03T17:33:31.554Z,99535.41
2019-02-03T17:36:00.275Z,99540.92
2019-02-03T17:38:29.342Z,99535.10
2019-02-03T17:40:58.084Z,99530.14
2019-02-03T17:43:26.723Z,99534.80
2019-02-03T17:45:55.412Z,99542.63
2019-02-03T17:48:24.043Z,99533.52
2019-02-03T17:50:53.219Z,99532.59
2019-02-03T17:53:21.938Z,99528.05
2019-02-03T17:55:53.618Z,99525.67
2019-02-03T17:58:25.976Z,99522.10
2019-02-03T18:00:56.238Z,99514.64
2019-02-03T18:03:24.911Z,99533.45
2019-02-03T18:05:56.524Z,99523.72
2019-02-03T18:08:25.222Z,99526.38
2019-02-03T18:10:53.863Z,99521.39
2019-02-03T18:13:22.496Z,99522.45
2019-02-03T18:15:54.120Z,99529.41
2019-02-03T18:18:22.764Z,99527.67
2019-02-03T18:20:51.716Z,99531.70
2019-02-03T18:23:20.360Z,99536.11
2019-02-03T18:25:49.058Z,99530.34
2019-02-03T18:28:17.659Z,99531.05
2019-02-03T18:30:49.144Z,99533.74
2019-02-03T18:33:17.820Z,99531.27
2019-02-03T18:35:49.261Z,99532.95
2019-02-03T18:38:17.895Z,99542.44
2019-02-03T18:40:46.615Z,99533.45
2019-02-03T18:43:18.233Z,99528.84
2019-02-03T18:45:49.999Z,99533.56
2019-02-03T18:48:18.816Z,99532.56
2019-02-03T18:50:51.396Z,99534.80
2019-02-03T18:53:20.109Z,99537.25
2019-02-03T18:55:48.816Z,99555.84
2019-02-03T18:58:21.731Z,99547.20
2019-02-03T19:00:53.943Z,99559.48
2019-02-03T19:03:27.004Z,99561.22
2019-02-03T19:05:55.651Z,99571.87
2019-02-03T19:08:24.396Z,99567.52
2019-02-03T19:10:53.077Z,99576.52
2019-02-03T19:13:24.476Z,99570.43
2019-02-03T19:15:53.110Z,99588.89
2019-02-03T19:18:24.438Z,99588.42
2019-02-03T19:20:52.985Z,99592.28
2019-02-03T19:23:21.671Z,99591.50
2019-02-03T19:25:53.477Z,99598.03
2019-02-03T19:28:22.166Z,99600.27
2019-02-03T19:30:50.802Z,99608.87
2019-02-03T19:33:19.535Z,99613.28
2019-02-03T19:35:50.963Z,99606.03
2019-02-03T19:38:22.264Z,99610.42
2019-02-03T19:40:51.444Z,99621.21
2019-02-03T19:43:24.959Z,99620.37
2019-02-03T19:45:53.272Z,99627.22
2019-02-03T19:48:21.959Z,99625.48
2019-02-03T19:50:50.545Z,99624.75
2019-02-03T19:53:19.229Z,99625.59
2019-02-03T19:55:47.795Z,99634.72
2019-02-03T19:58:18.744Z,99634.25
2019-02-03T20:00:47.440Z,99627.26
2019-02-03T20:03:16.082Z,99628.14
2019-02-03T20:05:44.727Z,99629.61
2019-02-03T20:08:13.398Z,99634.31
2019-02-03T20:10:42.056Z,99633.86
2019-02-03T20:13:13.760Z,99640.14
2019-02-03T20:15:42.420Z,99638.03
2019-02-03T20:18:11.109Z,99647.90
2019-02-03T20:20:41.047Z,99650.91
2019-02-03T20:23:10.068Z,99631.50
2019-02-03T20:25:38.752Z,99638.47
2019-02-03T20:28:07.980Z,99641.74
2019-02-03T20:30:38.971Z,99633.23
2019-02-03T20:33:07.126Z,99643.95
2019-02-03T20:35:35.804Z,99643.98
2019-02-03T20:38:05.522Z,99647.48
2019-02-03T20:40:39.270Z,99638.01
2019-02-03T20:43:07.910Z,99633.25
2019-02-03T20:45:48.456Z,99632.43
2019-02-03T20:48:06.885Z,99630.25
2019-02-03T20:50:35.584Z,99637.97
2019-02-03T20:53:04.236Z,99637.88
2019-02-03T20:55:32.912Z,99635.34
2019-02-03T20:58:01.609Z,99639.39
2019-02-03T21:00:37.971Z,99643.80
2019-02-03T21:03:07.214Z,99642.10
2019-02-03T21:05:36.090Z,99642.93
2019-02-03T21:08:04.943Z,99645.89
2019-02-03T21:10:40.345Z,99644.59
2019-02-03T21:13:11.407Z,99642.02
2019-02-03T21:15:39.363Z,99653.67
2019-02-03T21:18:08.402Z,99661.42
2019-02-03T21:20:37.056Z,99654.56
2019-02-03T21:23:05.945Z,99639.88
2019-02-03T21:25:34.590Z,99654.48
2019-02-03T21:28:03.230Z,99662.60
2019-02-03T21:30:34.442Z,99670.37
2019-02-03T21:33:10.376Z,99665.17
2019-02-03T21:35:41.690Z,99665.20
2019-02-03T21:38:10.333Z,99673.95
2019-02-03T21:40:38.963Z,99673.02
2019-02-03T21:43:07.793Z,99674.82
2019-02-03T21:45:44.337Z,99675.11
2019-02-03T21:48:07.172Z,99673.28
2019-02-03T21:50:35.857Z,99675.88
2019-02-03T21:53:04.590Z,99672.80
2019-02-03T21:55:33.296Z,99667.53
2019-02-03T21:58:01.989Z,99681.27
2019-02-03T22:00:33.852Z,99685.86
2019-02-03T22:03:02.519Z,99691.86
2019-02-03T22:05:31.300Z,99691.98
2019-02-03T22:08:00.118Z,99697.49
2019-02-03T22:10:36.841Z,99705.25
2019-02-03T22:13:08.645Z,99706.20
2019-02-03T22:15:37.319Z,99698.02
2019-02-03T22:18:05.958Z,99715.45
2019-02-03T22:20:34.517Z,99718.02
2019-02-03T22:23:03.129Z,99707.08
2019-02-03T22:25:32.200Z,99722.20
2019-02-03T22:28:03.922Z,99719.05
2019-02-03T22:30:37.804Z,99718.61
2019-02-03T22:33:06.785Z,99725.53
2019-02-03T22:35:35.414Z,99731.09
2019-02-03T22:38:04.528Z,99732.48
2019-02-03T22:40:33.225Z,99735.14
2019-02-03T22:43:03.154Z,99723.59
2019-02-03T22:45:31.865Z,99730.09
2019-02-03T22:48:00.552Z,99727.08
2019-02-03T22:50:34.196Z,99723.81
2019-02-03T22:53:02.818Z,99728.11
2019-02-03T22:55:31.461Z,99722.54
2019-02-03T22:58:00.147Z,99727.23
2019-02-03T23:00:44.265Z,99719.90
2019-02-03T23:03:13.323Z,99721.08
2019-02-03T23:05:41.961Z,99718.02
2019-02-03T23:08:10.649Z,99737.49
2019-02-03T23:10:39.340Z,99739.16
2019-02-03T23:13:10.987Z,99719.35
2019-02-03T23:15:39.872Z,99723.78
2019-02-03T23:18:11.594Z,99717.29
2019-02-03T23:20:40.286Z,99710.73
2019-02-03T23:23:08.858Z,99724.53
2019-02-03T23:25:37.543Z,99727.95
2019-02-03T23:28:06.207Z,99713.72
2019-02-03T23:30:34.854Z,99720.78
2019-02-03T23:33:03.540Z,99724.33
2019-02-03T23:35:32.181Z,99737.61
2019-02-03T23:38:00.818Z,99728.81
2019-02-03T23:40:29.497Z,99720.64
2019-02-03T23:42:58.921Z,99732.66
2019-02-03T23:45:27.616Z,99733.48
2019-02-03T23:47:56.381Z,99719.25
2019-02-03T23:50:25.049Z,99725.81
2019-02-03T23:52:53.723Z,99714.49
2019-02-03T23:55:22.349Z,99695.39
2019-02-03T23:57:50.993Z,99714.09
